createdAt,value
2022-08-26T00:00:58.805Z,13
2022-08-26T00:02:38.556Z,13
2022-08-26T00:04:18.345Z,13
2022-08-26T00:05:58.086Z,12.98
2022-08-26T00:07:37.853Z,12.98
2022-08-26T00:09:17.623Z,12.97
2022-08-26T00:10:57.382Z,13
2022-08-26T00:12:37.157Z,12.99
2022-08-26T00:14:16.905Z,13
2022-08-26T00:15:56.683Z,13
2022-08-26T00:17:36.439Z,13
2022-08-26T00:19:16.202Z,12.99
2022-08-26T00:20:55.983Z,12.98
2022-08-26T00:22:35.756Z,13
2022-08-26T00:24:15.508Z,12.97
2022-08-26T00:25:55.271Z,12.93
2022-08-26T00:27:35.017Z,12.95
2022-08-26T00:29:14.797Z,12.91
2022-08-26T00:30:54.552Z,12.97
2022-08-26T00:34:14.084Z,12.99
2022-08-26T00:35:53.847Z,12.97
2022-08-26T00:37:33.621Z,12.99
2022-08-26T00:39:13.362Z,12.96
2022-08-26T00:40:53.163Z,12.99
2022-08-26T00:42:32.908Z,12.99
2022-08-26T00:44:12.669Z,12.99
2022-08-26T00:45:52.425Z,12.96
2022-08-26T00:47:32.191Z,12.95
2022-08-26T00:49:11.969Z,12.96
2022-08-26T00:50:51.722Z,12.98
2022-08-26T00:52:31.479Z,12.98
2022-08-26T00:54:11.258Z,12.98
2022-08-26T00:55:51.028Z,12.98
2022-08-26T00:57:30.774Z,12.95
2022-08-26T00:59:10.547Z,12.98
2022-08-26T01:00:50.304Z,12.98
2022-08-26T01:02:30.068Z,12.92
2022-08-26T01:04:09.841Z,12.98
2022-08-26T01:05:49.605Z,12.96
2022-08-26T01:07:29.360Z,12.97
2022-08-26T01:09:09.119Z,12.98
2022-08-26T01:10:48.894Z,12.97
2022-08-26T01:12:28.663Z,12.93
2022-08-26T01:14:08.422Z,12.98
2022-08-26T01:15:48.234Z,12.95
2022-08-26T01:17:27.967Z,12.97
2022-08-26T01:19:07.722Z,12.97
2022-08-26T01:20:47.494Z,12.97
2022-08-26T01:22:27.249Z,12.95
2022-08-26T01:24:07.043Z,12.97
2022-08-26T01:25:46.771Z,12.97
2022-08-26T01:27:26.544Z,12.94
2022-08-26T01:29:06.288Z,12.95
2022-08-26T01:30:46.051Z,12.97
2022-08-26T01:32:25.839Z,12.96
2022-08-26T01:34:05.587Z,12.97
2022-08-26T01:35:45.350Z,12.96
2022-08-26T01:37:25.109Z,12.96
2022-08-26T01:40:44.649Z,12.96
2022-08-26T01:42:24.412Z,12.93
2022-08-26T01:44:04.184Z,12.96
2022-08-26T01:45:43.946Z,12.96
2022-08-26T01:47:23.700Z,12.95
2022-08-26T01:49:03.456Z,12.93
2022-08-26T01:50:43.220Z,12.95
2022-08-26T01:52:22.990Z,12.93
2022-08-26T01:54:02.760Z,12.93
2022-08-26T01:55:42.518Z,12.95
2022-08-26T01:57:22.295Z,12.95
2022-08-26T01:59:02.055Z,12.95
2022-08-26T02:00:41.803Z,12.95
2022-08-26T02:02:21.575Z,12.95
2022-08-26T02:04:01.341Z,12.95
2022-08-26T02:05:41.109Z,12.95
2022-08-26T02:07:20.861Z,12.92
2022-08-26T02:09:00.626Z,12.94
2022-08-26T02:10:40.388Z,12.94
2022-08-26T02:12:20.159Z,12.94
2022-08-26T02:13:59.919Z,12.94
2022-08-26T02:15:39.679Z,12.94
2022-08-26T02:17:19.460Z,12.94
2022-08-26T02:18:59.212Z,12.92
2022-08-26T02:20:38.973Z,12.94
2022-08-26T02:22:18.744Z,12.94
2022-08-26T02:23:58.517Z,12.92
2022-08-26T02:25:38.282Z,12.91
2022-08-26T02:27:18.049Z,12.91
2022-08-26T02:28:57.793Z,12.94
2022-08-26T02:30:37.590Z,12.94
2022-08-26T02:32:17.329Z,12.93
2022-08-26T02:33:57.080Z,12.91
2022-08-26T02:35:36.855Z,12.93
2022-08-26T02:37:16.639Z,12.93
2022-08-26T02:38:56.397Z,12.91
2022-08-26T02:40:36.158Z,12.93
2022-08-26T02:42:15.901Z,12.93
2022-08-26T02:43:55.687Z,12.93
2022-08-26T02:45:35.474Z,12.94
2022-08-26T02:47:15.242Z,12.93
2022-08-26T02:48:54.965Z,12.9
2022-08-26T02:50:34.722Z,12.92
2022-08-26T02:52:14.490Z,12.92
2022-08-26T02:53:54.254Z,12.92
2022-08-26T02:55:34.041Z,12.92
2022-08-26T02:57:13.799Z,12.92
2022-08-26T02:58:53.556Z,12.92
2022-08-26T03:00:33.315Z,12.92
2022-08-26T03:02:13.073Z,12.92
2022-08-26T03:03:52.853Z,12.92
2022-08-26T03:05:32.613Z,12.91
2022-08-26T03:07:12.383Z,12.91
2022-08-26T03:08:52.143Z,12.91
2022-08-26T03:10:31.896Z,12.91
2022-08-26T03:12:11.658Z,12.91
2022-08-26T03:13:51.427Z,12.88
2022-08-26T03:15:31.192Z,12.88
2022-08-26T03:17:10.950Z,12.88
2022-08-26T03:18:50.726Z,12.88
2022-08-26T03:20:30.485Z,12.9
2022-08-26T03:22:10.255Z,12.9
2022-08-26T03:23:50.019Z,12.86
2022-08-26T03:25:29.772Z,12.89
2022-08-26T03:27:09.551Z,12.87
2022-08-26T03:28:49.345Z,12.9
2022-08-26T03:30:29.067Z,12.89
2022-08-26T03:33:48.593Z,12.88
2022-08-26T03:35:28.366Z,12.89
2022-08-26T03:37:08.132Z,12.88
2022-08-26T03:38:47.908Z,12.89
2022-08-26T03:40:27.645Z,12.89
2022-08-26T03:42:07.424Z,12.86
2022-08-26T03:43:47.189Z,12.88
2022-08-26T03:45:26.954Z,12.86
2022-08-26T03:47:06.714Z,12.82
2022-08-26T03:48:46.489Z,12.88
2022-08-26T03:50:26.240Z,12.86
2022-08-26T03:52:06.000Z,12.88
2022-08-26T03:55:25.532Z,12.86
2022-08-26T03:57:05.286Z,12.85
2022-08-26T03:58:45.060Z,12.88
2022-08-26T04:00:24.828Z,12.88
2022-08-26T04:02:04.589Z,12.88
2022-08-26T04:03:44.339Z,12.86
2022-08-26T04:05:24.111Z,12.86
2022-08-26T04:07:03.886Z,12.88
2022-08-26T04:08:43.648Z,12.88
2022-08-26T04:10:23.445Z,12.86
2022-08-26T04:12:03.173Z,12.87
2022-08-26T04:13:42.940Z,12.9
2022-08-26T04:15:22.696Z,12.89
2022-08-26T04:17:02.451Z,12.88
2022-08-26T04:18:42.232Z,12.87
2022-08-26T04:20:21.997Z,12.87
2022-08-26T04:22:01.762Z,12.89
2022-08-26T04:23:41.513Z,12.89
2022-08-26T04:25:21.275Z,12.9
2022-08-26T04:27:01.038Z,12.9
2022-08-26T04:28:40.824Z,12.91
2022-08-26T04:30:20.583Z,12.92
2022-08-26T04:32:00.330Z,12.92
2022-08-26T04:33:40.113Z,12.93
2022-08-26T04:35:19.860Z,12.94
2022-08-26T04:36:59.632Z,12.93
2022-08-26T04:38:39.400Z,12.95
2022-08-26T04:40:19.147Z,12.98
2022-08-26T04:41:58.914Z,12.97
2022-08-26T04:43:38.688Z,13.01
2022-08-26T04:46:58.213Z,13.04
2022-08-26T04:48:37.991Z,13.08
2022-08-26T04:50:17.732Z,13.1
2022-08-26T04:51:57.511Z,13.11
2022-08-26T04:53:37.270Z,13.17
2022-08-26T04:55:17.036Z,13.2
2022-08-26T04:56:56.806Z,13.21
2022-08-26T04:58:36.561Z,13.27
2022-08-26T05:00:16.316Z,13.28
2022-08-26T05:01:56.082Z,13.36
2022-08-26T05:03:35.841Z,13.39
2022-08-26T05:05:15.633Z,13.43
2022-08-26T05:06:55.380Z,13.42
2022-08-26T05:08:35.154Z,13.48
2022-08-26T05:10:14.915Z,13.52
2022-08-26T05:11:54.682Z,13.52
2022-08-26T05:13:34.440Z,13.57
2022-08-26T05:15:14.191Z,13.59
2022-08-26T05:16:53.957Z,13.61
2022-08-26T05:18:33.732Z,13.64
2022-08-26T05:20:13.496Z,13.67
2022-08-26T05:21:53.262Z,13.68
2022-08-26T05:23:33.026Z,13.74
2022-08-26T05:25:12.796Z,13.71
2022-08-26T05:26:52.555Z,13.72
2022-08-26T05:28:32.334Z,13.71
2022-08-26T05:30:12.080Z,13.71
2022-08-26T05:31:51.845Z,13.71
2022-08-26T05:33:31.602Z,13.7
2022-08-26T05:35:11.368Z,13.7
2022-08-26T05:36:51.134Z,13.73
2022-08-26T05:38:30.898Z,13.72
2022-08-26T05:40:10.663Z,13.73
2022-08-26T05:41:50.427Z,13.73
2022-08-26T05:43:30.195Z,13.71
2022-08-26T05:46:49.714Z,13.75
2022-08-26T05:48:29.480Z,13.74
2022-08-26T05:50:09.243Z,13.77
2022-08-26T05:51:49.016Z,13.79
2022-08-26T05:53:28.775Z,13.8
2022-08-26T05:56:48.371Z,13.84
2022-08-26T05:58:28.071Z,13.86
2022-08-26T06:01:47.599Z,13.85
2022-08-26T06:03:27.356Z,13.89
2022-08-26T06:05:07.125Z,13.9
2022-08-26T06:06:46.900Z,13.93
2022-08-26T06:08:26.660Z,13.95
2022-08-26T06:10:06.424Z,13.94
2022-08-26T06:11:46.191Z,13.97
2022-08-26T06:13:25.945Z,13.99
2022-08-26T06:15:05.699Z,14.03
2022-08-26T06:16:45.484Z,14.06
2022-08-26T06:18:25.246Z,14.09
2022-08-26T06:20:05.005Z,14.11
2022-08-26T06:21:44.758Z,14.13
2022-08-26T06:23:24.530Z,14.58
2022-08-26T06:25:04.315Z,14.57
2022-08-26T06:26:44.049Z,14.54
2022-08-26T06:28:23.830Z,14.54
2022-08-26T06:30:03.582Z,14.56
2022-08-26T06:31:43.352Z,14.55
2022-08-26T06:33:23.127Z,14.54
2022-08-26T06:35:02.890Z,14.52
2022-08-26T06:36:42.647Z,14.53
2022-08-26T06:38:22.428Z,14.52
2022-08-26T06:40:02.184Z,14.53
2022-08-26T06:41:41.958Z,14.54
2022-08-26T06:43:21.725Z,14.56
2022-08-26T06:45:01.511Z,14.58
2022-08-26T06:46:41.247Z,14.56
2022-08-26T06:48:21.028Z,14.52
2022-08-26T06:50:00.765Z,14.55
2022-08-26T06:51:40.540Z,14.53
2022-08-26T06:53:20.308Z,14.53
2022-08-26T06:55:00.063Z,14.53
2022-08-26T06:56:39.841Z,14.53
2022-08-26T06:58:19.601Z,14.52
2022-08-26T06:59:59.358Z,14.53
2022-08-26T07:01:39.141Z,14.48
2022-08-26T07:03:18.888Z,14.5
2022-08-26T07:04:58.649Z,14.52
2022-08-26T07:06:38.421Z,14.51
2022-08-26T07:08:18.181Z,14.5
2022-08-26T07:09:57.949Z,14.47
2022-08-26T07:11:37.701Z,14.51
2022-08-26T07:13:17.490Z,14.53
2022-08-26T07:14:57.234Z,14.5
2022-08-26T07:16:37.004Z,14.5
2022-08-26T07:18:16.766Z,14.5
2022-08-26T07:19:56.522Z,14.53
2022-08-26T07:21:36.293Z,14.46
2022-08-26T07:23:16.054Z,14.5
2022-08-26T07:24:55.820Z,14.46
2022-08-26T07:26:35.598Z,14.51
2022-08-26T07:28:15.366Z,14.44
2022-08-26T07:29:55.113Z,14.48
2022-08-26T07:31:34.869Z,14.48
2022-08-26T07:33:14.650Z,14.42
2022-08-26T07:34:54.419Z,14.47
2022-08-26T07:36:34.164Z,14.48
2022-08-26T07:38:13.940Z,14.48
2022-08-26T07:39:53.691Z,14.49
2022-08-26T07:41:33.460Z,14.43
2022-08-26T07:43:13.258Z,14.49
2022-08-26T07:44:52.982Z,14.48
2022-08-26T07:46:32.767Z,14.48
2022-08-26T07:48:12.512Z,14.44
2022-08-26T07:49:52.280Z,14.39
2022-08-26T07:51:32.041Z,14.52
2022-08-26T07:53:11.832Z,14.49
2022-08-26T07:56:31.339Z,14.43
2022-08-26T07:58:11.098Z,14.48
2022-08-26T07:59:50.865Z,14.47
2022-08-26T08:01:30.632Z,14.45
2022-08-26T08:03:10.391Z,14.43
2022-08-26T08:04:50.152Z,14.45
2022-08-26T08:06:29.930Z,14.44
2022-08-26T08:08:09.688Z,14.46
2022-08-26T08:09:49.452Z,14.48
2022-08-26T08:11:29.226Z,14.42
2022-08-26T08:13:08.978Z,14.44
2022-08-26T08:14:48.749Z,14.46
2022-08-26T08:16:28.504Z,14.41
2022-08-26T08:18:08.280Z,14.42
2022-08-26T08:19:48.027Z,14.4
2022-08-26T08:21:27.802Z,14.42
2022-08-26T08:23:07.589Z,14.08
2022-08-26T08:26:27.097Z,13.83
2022-08-26T08:28:06.849Z,13.74
2022-08-26T08:29:46.622Z,13.76
2022-08-26T08:31:26.419Z,13.81
2022-08-26T08:33:06.199Z,13.9
2022-08-26T08:34:45.919Z,13.85
2022-08-26T08:36:25.685Z,13.82
2022-08-26T08:38:05.442Z,13.8
2022-08-26T08:39:45.214Z,13.8
2022-08-26T08:41:24.973Z,13.78
2022-08-26T08:43:04.757Z,13.79
2022-08-26T08:44:44.528Z,13.81
2022-08-26T08:46:24.270Z,13.81
2022-08-26T08:48:04.038Z,13.81
2022-08-26T08:49:43.789Z,13.86
2022-08-26T08:51:23.565Z,13.86
2022-08-26T08:53:03.331Z,13.86
2022-08-26T08:54:43.096Z,13.86
2022-08-26T08:56:22.889Z,13.85
2022-08-26T08:58:02.615Z,13.87
2022-08-26T08:59:42.373Z,13.86
2022-08-26T09:01:22.132Z,13.85
2022-08-26T09:03:01.913Z,13.86
2022-08-26T09:04:41.681Z,13.84
2022-08-26T09:06:21.462Z,13.85
2022-08-26T09:08:01.194Z,13.86
2022-08-26T09:09:40.975Z,13.86
2022-08-26T09:11:20.726Z,13.84
2022-08-26T09:13:00.519Z,13.85
2022-08-26T09:14:40.254Z,13.8
2022-08-26T09:16:20.029Z,13.85
2022-08-26T09:17:59.796Z,13.82
2022-08-26T09:19:39.543Z,13.88
2022-08-26T09:21:19.310Z,13.87
2022-08-26T09:24:38.849Z,13.87
2022-08-26T09:26:18.593Z,13.87
2022-08-26T09:27:58.369Z,13.86
2022-08-26T09:29:38.149Z,13.88
2022-08-26T09:31:17.908Z,13.85
2022-08-26T09:32:57.657Z,13.86
2022-08-26T09:34:37.457Z,13.82
2022-08-26T09:36:17.191Z,13.83
2022-08-26T09:37:56.957Z,13.83
2022-08-26T09:39:36.730Z,13.8
2022-08-26T09:41:16.494Z,13.81
2022-08-26T09:42:56.250Z,13.81
2022-08-26T09:46:15.764Z,13.82
2022-08-26T09:47:55.541Z,13.82
2022-08-26T09:49:35.312Z,13.81
2022-08-26T09:52:54.834Z,13.82
2022-08-26T09:54:34.601Z,13.81
2022-08-26T09:56:14.356Z,13.83
2022-08-26T09:57:54.130Z,13.8
2022-08-26T09:59:33.880Z,13.81
2022-08-26T10:01:13.646Z,13.82
2022-08-26T10:02:53.422Z,13.79
2022-08-26T10:04:33.190Z,13.82
2022-08-26T10:06:12.954Z,13.82
2022-08-26T10:07:52.710Z,13.79
2022-08-26T10:09:32.463Z,13.84
2022-08-26T10:11:12.239Z,13.84
2022-08-26T10:12:52.008Z,13.83
2022-08-26T10:16:11.537Z,13.84
2022-08-26T10:17:51.291Z,13.8
2022-08-26T10:19:31.059Z,13.82
2022-08-26T10:21:10.831Z,13.81
2022-08-26T10:22:50.596Z,13.8
2022-08-26T10:26:10.125Z,13.8
2022-08-26T10:27:49.880Z,13.8
2022-08-26T10:29:29.653Z,13.77
2022-08-26T10:31:09.426Z,13.77
2022-08-26T10:32:49.195Z,13.74
2022-08-26T10:34:28.944Z,13.75
2022-08-26T10:36:08.698Z,13.73
2022-08-26T10:37:48.467Z,13.74
2022-08-26T10:39:28.239Z,13.74
2022-08-26T10:41:07.990Z,13.77
2022-08-26T10:42:47.756Z,13.84
2022-08-26T10:44:27.525Z,13.83
2022-08-26T10:46:07.281Z,13.78
2022-08-26T10:47:47.057Z,13.76
2022-08-26T10:49:26.822Z,13.76
2022-08-26T10:51:06.588Z,13.73
2022-08-26T10:52:46.348Z,13.78
2022-08-26T10:54:26.107Z,13.78
2022-08-26T10:56:05.876Z,13.76
2022-08-26T10:57:45.650Z,13.76
2022-08-26T10:59:25.412Z,13.71
2022-08-26T11:01:05.168Z,13.74
2022-08-26T11:02:44.926Z,13.75
2022-08-26T11:04:24.691Z,13.82
2022-08-26T11:06:04.456Z,13.83
2022-08-26T11:07:44.228Z,13.8
2022-08-26T11:09:24.005Z,13.78
2022-08-26T11:11:03.772Z,13.77
2022-08-26T11:12:43.534Z,13.77
2022-08-26T11:14:23.303Z,13.78
2022-08-26T11:16:03.067Z,13.79
2022-08-26T11:17:42.819Z,13.81
2022-08-26T11:19:22.587Z,13.8
2022-08-26T11:21:02.356Z,13.81
2022-08-26T11:22:42.121Z,13.83
2022-08-26T11:26:01.645Z,13.81
2022-08-26T11:27:41.422Z,13.81
2022-08-26T11:29:21.172Z,13.78
2022-08-26T11:31:00.943Z,13.79
2022-08-26T11:32:40.700Z,13.77
2022-08-26T11:34:20.461Z,13.76
2022-08-26T11:36:00.227Z,13.75
2022-08-26T11:37:39.999Z,13.76
2022-08-26T11:39:19.767Z,13.74
2022-08-26T11:40:59.522Z,13.75
2022-08-26T11:42:39.282Z,13.77
2022-08-26T11:44:19.047Z,13.76
2022-08-26T11:45:58.820Z,13.79
2022-08-26T11:47:38.582Z,13.81
2022-08-26T11:49:18.358Z,13.83
2022-08-26T11:50:58.116Z,13.81
2022-08-26T11:52:37.866Z,13.76
2022-08-26T11:54:17.644Z,13.76
2022-08-26T11:55:57.411Z,13.74
2022-08-26T11:57:37.170Z,13.75
2022-08-26T11:59:16.943Z,13.77
2022-08-26T12:00:56.703Z,13.78
2022-08-26T12:02:36.458Z,13.8
2022-08-26T12:05:55.992Z,13.79
2022-08-26T12:07:35.749Z,13.72
2022-08-26T12:09:15.518Z,13.84
2022-08-26T12:10:55.282Z,13.77
2022-08-26T12:12:35.043Z,13.77
2022-08-26T12:14:14.802Z,13.8
2022-08-26T12:15:54.570Z,13.79
2022-08-26T12:19:14.117Z,13.87
2022-08-26T12:20:53.866Z,13.76
2022-08-26T12:22:33.625Z,13.8
2022-08-26T12:24:13.385Z,13.77
2022-08-26T12:25:53.167Z,13.83
2022-08-26T12:27:32.910Z,13.84
2022-08-26T12:29:12.695Z,13.78
2022-08-26T12:32:32.210Z,13.84
2022-08-26T12:34:11.989Z,13.79
2022-08-26T12:35:51.747Z,13.77
2022-08-26T12:37:31.510Z,13.78
2022-08-26T12:39:11.270Z,13.8
2022-08-26T12:40:51.029Z,13.8
2022-08-26T12:42:30.801Z,13.77
2022-08-26T12:44:10.570Z,13.79
2022-08-26T12:45:50.336Z,13.87
2022-08-26T12:47:30.097Z,13.76
2022-08-26T12:49:09.847Z,13.9
2022-08-26T12:50:49.627Z,13.77
2022-08-26T12:52:29.392Z,13.78
2022-08-26T12:55:48.919Z,13.57
2022-08-26T12:57:28.678Z,13.48
2022-08-26T12:59:08.442Z,13.43
2022-08-26T13:00:48.200Z,13.4
2022-08-26T13:02:27.965Z,13.38
2022-08-26T13:04:07.734Z,13.35
2022-08-26T13:05:47.510Z,13.31
2022-08-26T13:07:27.259Z,13.36
2022-08-26T13:09:07.027Z,13.35
2022-08-26T13:10:46.787Z,13.35
2022-08-26T13:12:26.587Z,13.37
2022-08-26T13:15:46.081Z,13.38
2022-08-26T13:17:25.847Z,13.34
2022-08-26T13:19:05.609Z,13.34
2022-08-26T13:20:45.364Z,13.35
2022-08-26T13:22:25.146Z,13.34
2022-08-26T13:25:44.668Z,13.41
2022-08-26T13:27:24.437Z,13.48
2022-08-26T13:29:04.187Z,13.54
2022-08-26T13:30:43.965Z,13.64
2022-08-26T13:32:23.721Z,14.08
2022-08-26T13:34:03.475Z,13.72
2022-08-26T13:35:43.258Z,13.81
2022-08-26T13:37:23.006Z,13.87
2022-08-26T13:39:02.774Z,13.82
2022-08-26T13:40:42.543Z,13.81
2022-08-26T13:42:22.298Z,13.84
2022-08-26T13:44:02.069Z,13.81
2022-08-26T13:45:41.848Z,13.85
2022-08-26T13:47:21.601Z,13.83
2022-08-26T13:49:01.366Z,13.83
2022-08-26T13:50:41.119Z,13.85
2022-08-26T13:52:20.878Z,13.88
2022-08-26T13:54:00.660Z,13.76
2022-08-26T13:55:40.406Z,13.8
2022-08-26T13:57:20.190Z,13.87
2022-08-26T13:58:59.941Z,13.8
2022-08-26T14:00:39.712Z,13.9
2022-08-26T14:02:19.472Z,13.8
2022-08-26T14:03:59.256Z,13.74
2022-08-26T14:05:39.025Z,13.83
2022-08-26T14:08:58.586Z,13.87
2022-08-26T14:10:38.303Z,13.78
2022-08-26T14:12:18.061Z,13.77
2022-08-26T14:15:37.581Z,13.76
2022-08-26T14:17:17.343Z,13.8
2022-08-26T14:18:57.114Z,13.77
2022-08-26T14:22:16.635Z,13.79
2022-08-26T14:25:36.173Z,13.8
2022-08-26T14:27:15.963Z,13.79
2022-08-26T14:28:55.696Z,13.79
2022-08-26T14:30:35.471Z,13.81
2022-08-26T14:32:15.219Z,13.77
2022-08-26T14:33:54.991Z,13.74
2022-08-26T14:35:34.753Z,13.51
2022-08-26T14:37:14.519Z,13.46
2022-08-26T14:38:54.295Z,13.39
2022-08-26T14:40:34.042Z,13.39
2022-08-26T14:42:13.827Z,13.33
2022-08-26T14:43:53.578Z,13.31
2022-08-26T14:45:33.335Z,13.27
2022-08-26T14:47:13.114Z,13.24
2022-08-26T14:48:52.870Z,13.25
2022-08-26T14:50:32.635Z,13.28
2022-08-26T14:52:12.414Z,13.31
2022-08-26T14:55:31.923Z,13.39
2022-08-26T14:57:11.697Z,13.42
2022-08-26T14:58:51.456Z,13.46
2022-08-26T15:00:31.225Z,13.48
2022-08-26T15:02:10.996Z,13.51
2022-08-26T15:03:50.738Z,13.5
2022-08-26T15:05:30.510Z,13.54
2022-08-26T15:07:10.274Z,13.55
2022-08-26T15:08:50.039Z,13.54
2022-08-26T15:10:29.805Z,13.56
2022-08-26T15:13:49.320Z,13.6
2022-08-26T15:15:29.103Z,13.66
2022-08-26T15:17:08.862Z,13.68
2022-08-26T15:18:48.614Z,13.69
2022-08-26T15:20:28.391Z,13.67
2022-08-26T15:22:08.158Z,13.58
2022-08-26T15:25:27.689Z,13.51
2022-08-26T15:27:07.436Z,13.45
2022-08-26T15:28:47.205Z,13.44
2022-08-26T15:30:26.969Z,13.41
2022-08-26T15:32:06.747Z,13.38
2022-08-26T15:33:46.505Z,13.35
2022-08-26T15:35:26.255Z,13.32
2022-08-26T15:37:06.028Z,13.27
2022-08-26T15:38:45.785Z,13.25
2022-08-26T15:40:25.544Z,13.22
2022-08-26T15:42:05.317Z,13.19
2022-08-26T15:43:45.074Z,13.19
2022-08-26T15:45:24.836Z,13.15
2022-08-26T15:47:04.611Z,13.17
2022-08-26T15:48:44.369Z,13.14
2022-08-26T15:50:24.128Z,13.12
2022-08-26T15:52:03.890Z,13.13
2022-08-26T15:55:23.427Z,13.13
2022-08-26T15:57:03.185Z,13.1
2022-08-26T15:58:42.948Z,13.13
2022-08-26T16:00:22.722Z,13.11
2022-08-26T16:02:02.491Z,13.09
2022-08-26T16:03:42.245Z,13.07
2022-08-26T16:05:22.018Z,13.11
2022-08-26T16:07:01.781Z,13.11
2022-08-26T16:08:41.541Z,13.09
2022-08-26T16:10:21.299Z,13.11
2022-08-26T16:12:01.065Z,13.11
2022-08-26T16:13:40.839Z,13.09
2022-08-26T16:15:20.600Z,13.08
2022-08-26T16:17:00.364Z,13.1
2022-08-26T16:18:40.132Z,13.12
2022-08-26T16:20:19.894Z,13.08
2022-08-26T16:21:59.649Z,13.08
2022-08-26T16:23:39.420Z,13.1
2022-08-26T16:25:19.192Z,13.08
2022-08-26T16:26:58.947Z,13.08
2022-08-26T16:28:38.708Z,13.09
2022-08-26T16:30:18.500Z,13.08
2022-08-26T16:31:58.236Z,13.1
2022-08-26T16:33:37.994Z,13.1
2022-08-26T16:35:17.780Z,13.09
2022-08-26T16:36:57.533Z,13.1
2022-08-26T16:38:37.286Z,13.1
2022-08-26T16:40:17.064Z,13.07
2022-08-26T16:41:56.837Z,13.09
2022-08-26T16:43:36.580Z,13.1
2022-08-26T16:45:16.355Z,13.09
2022-08-26T16:46:56.122Z,13.07
2022-08-26T16:48:35.878Z,13.07
2022-08-26T16:50:15.635Z,13.09
2022-08-26T16:51:55.406Z,13.09
2022-08-26T16:55:14.944Z,13.06
2022-08-26T16:56:54.700Z,13.07
2022-08-26T16:58:34.472Z,13.08
2022-08-26T17:00:14.223Z,13.08
2022-08-26T17:01:53.993Z,13.06
2022-08-26T17:03:33.751Z,13.06
2022-08-26T17:05:13.525Z,13.08
2022-08-26T17:06:53.284Z,13.08
2022-08-26T17:08:33.037Z,13.08
2022-08-26T17:10:12.804Z,13.08
2022-08-26T17:11:52.585Z,13.08
2022-08-26T17:13:32.355Z,13.07
2022-08-26T17:15:12.098Z,13.05
2022-08-26T17:16:51.864Z,13.07
2022-08-26T17:18:31.632Z,13.06
2022-08-26T17:20:11.397Z,13.07
2022-08-26T17:21:51.153Z,13.07
2022-08-26T17:23:30.926Z,13.05
2022-08-26T17:25:10.690Z,13.05
2022-08-26T17:26:50.437Z,13.05
2022-08-26T17:28:30.224Z,13.05
2022-08-26T17:30:09.985Z,13.07
2022-08-26T17:31:49.742Z,13.05
2022-08-26T17:33:29.514Z,13.07
2022-08-26T17:35:09.259Z,13.07
2022-08-26T17:36:49.043Z,13.07
2022-08-26T17:38:28.803Z,13.07
2022-08-26T17:40:08.584Z,13.07
2022-08-26T17:41:48.332Z,13.05
2022-08-26T17:43:28.093Z,13.05
2022-08-26T17:45:07.851Z,13.05
2022-08-26T17:46:47.611Z,13.07
2022-08-26T17:48:27.378Z,13.07
2022-08-26T17:50:07.149Z,13.05
2022-08-26T17:51:46.918Z,13.07
2022-08-26T17:53:26.676Z,13.05
2022-08-26T17:55:06.451Z,13.05
2022-08-26T17:56:46.197Z,13.07
2022-08-26T17:58:25.981Z,13.07
2022-08-26T18:00:05.737Z,13.07
2022-08-26T18:01:45.490Z,13.07
2022-08-26T18:03:25.263Z,13.04
2022-08-26T18:05:05.031Z,13.06
2022-08-26T18:06:44.793Z,13.07
2022-08-26T18:08:24.555Z,13.06
2022-08-26T18:10:04.322Z,13.04
2022-08-26T18:11:44.070Z,13.06
2022-08-26T18:13:23.838Z,13.03
2022-08-26T18:15:03.605Z,13.03
2022-08-26T18:16:43.381Z,13.06
2022-08-26T18:18:23.140Z,13.03
2022-08-26T18:20:02.903Z,13.03
2022-08-26T18:21:42.669Z,13.05
2022-08-26T18:23:22.422Z,13.05
2022-08-26T18:25:02.186Z,13.03
2022-08-26T18:26:41.961Z,13.05
2022-08-26T18:28:21.715Z,13.05
2022-08-26T18:30:01.483Z,13.05
2022-08-26T18:31:41.257Z,13.05
2022-08-26T18:33:21.005Z,13.03
2022-08-26T18:35:00.811Z,13.05
2022-08-26T18:36:40.540Z,13.05
2022-08-26T18:38:20.308Z,13.05
2022-08-26T18:40:00.080Z,13.05
2022-08-26T18:41:39.839Z,13.05
2022-08-26T18:43:19.589Z,13.04
2022-08-26T18:44:59.369Z,13.04
2022-08-26T18:46:39.122Z,13.05
2022-08-26T18:48:18.891Z,13.05
2022-08-26T18:51:38.427Z,13.05
2022-08-26T18:53:18.183Z,13.04
2022-08-26T18:54:57.955Z,13.02
2022-08-26T18:56:37.702Z,13.04
2022-08-26T18:58:17.475Z,13.05
2022-08-26T18:59:57.247Z,13.05
2022-08-26T19:01:37.013Z,13.02
2022-08-26T19:03:16.765Z,13.05
2022-08-26T19:04:56.521Z,13.02
2022-08-26T19:06:36.284Z,13.04
2022-08-26T19:08:16.070Z,13.02
2022-08-26T19:09:55.818Z,13.05
2022-08-26T19:11:35.591Z,13.02
2022-08-26T19:13:15.351Z,13.05
2022-08-26T19:14:55.123Z,13.05
2022-08-26T19:16:34.877Z,13.02
2022-08-26T19:18:14.644Z,13.04
2022-08-26T19:19:54.412Z,13.05
2022-08-26T19:21:34.181Z,13.02
2022-08-26T19:23:13.926Z,13.05
2022-08-26T19:24:53.688Z,13.04
2022-08-26T19:26:33.451Z,13.04
2022-08-26T19:28:13.230Z,13.05
2022-08-26T19:29:52.992Z,13.02
2022-08-26T19:31:32.756Z,13.04
2022-08-26T19:33:12.520Z,13.05
2022-08-26T19:34:52.293Z,13.04
2022-08-26T19:36:32.070Z,13.04
2022-08-26T19:38:11.804Z,13.04
2022-08-26T19:39:51.577Z,13.04
2022-08-26T19:41:31.342Z,13.02
2022-08-26T19:44:50.866Z,13.02
2022-08-26T19:46:30.628Z,13.04
2022-08-26T19:48:10.395Z,13.04
2022-08-26T19:49:50.168Z,13.01
2022-08-26T19:51:29.931Z,13.04
2022-08-26T19:53:09.697Z,13.03
2022-08-26T19:54:49.450Z,13.01
2022-08-26T19:56:29.220Z,13.02
2022-08-26T19:58:08.971Z,13.04
2022-08-26T19:59:48.741Z,13.04
2022-08-26T20:01:28.508Z,13.01
2022-08-26T20:03:08.289Z,13.05
2022-08-26T20:04:48.028Z,13.01
2022-08-26T20:06:27.819Z,13.01
2022-08-26T20:08:07.556Z,13.03
2022-08-26T20:09:47.331Z,13.03
2022-08-26T20:11:27.092Z,13.04
2022-08-26T20:13:06.867Z,13.04
2022-08-26T20:14:46.619Z,13.01
2022-08-26T20:16:26.379Z,13.03
2022-08-26T20:18:06.172Z,13.03
2022-08-26T20:19:45.903Z,13.03
2022-08-26T20:21:25.673Z,13.03
2022-08-26T20:23:05.436Z,13.04
2022-08-26T20:24:45.200Z,13.03
2022-08-26T20:26:24.967Z,13.01
2022-08-26T20:28:04.746Z,13.01
2022-08-26T20:29:44.493Z,13.03
2022-08-26T20:31:24.248Z,13.03
2022-08-26T20:33:04.023Z,13.02
2022-08-26T20:34:43.846Z,13.03
2022-08-26T20:36:23.559Z,13.03
2022-08-26T20:38:03.320Z,13.01
2022-08-26T20:39:43.083Z,13.01
2022-08-26T20:41:22.856Z,13.03
2022-08-26T20:43:02.607Z,13.02
2022-08-26T20:44:42.368Z,13.01
2022-08-26T20:46:22.144Z,13.01
2022-08-26T20:48:01.905Z,13.01
2022-08-26T20:49:41.660Z,13.03
2022-08-26T20:51:21.419Z,13.02
2022-08-26T20:53:01.203Z,13.03
2022-08-26T20:54:40.957Z,13
2022-08-26T20:56:20.726Z,13.01
2022-08-26T20:58:00.489Z,13.03
2022-08-26T20:59:40.245Z,13.03
2022-08-26T21:01:20.013Z,13.01
2022-08-26T21:02:59.774Z,13.03
2022-08-26T21:04:39.537Z,13
2022-08-26T21:06:19.300Z,13.03
2022-08-26T21:07:59.076Z,13
2022-08-26T21:09:38.839Z,13
2022-08-26T21:11:18.604Z,13.02
2022-08-26T21:12:58.366Z,13.02
2022-08-26T21:14:38.141Z,13.02
2022-08-26T21:16:17.880Z,12.95
2022-08-26T21:17:57.648Z,13.02
2022-08-26T21:21:17.181Z,13
2022-08-26T21:22:56.931Z,13
2022-08-26T21:24:36.720Z,13.02
2022-08-26T21:26:16.482Z,13.02
2022-08-26T21:27:56.235Z,13.03
2022-08-26T21:29:36.002Z,13.02
2022-08-26T21:31:15.767Z,12.98
2022-08-26T21:32:55.523Z,12.99
2022-08-26T21:34:35.294Z,12.99
2022-08-26T21:36:15.051Z,13
2022-08-26T21:37:54.814Z,13.02
2022-08-26T21:39:34.582Z,12.99
2022-08-26T21:41:14.385Z,12.99
2022-08-26T21:44:33.879Z,12.99
2022-08-26T21:46:13.649Z,12.99
2022-08-26T21:47:53.409Z,13.02
2022-08-26T21:49:33.168Z,13.01
2022-08-26T21:51:12.947Z,13.01
2022-08-26T21:52:52.699Z,13.01
2022-08-26T21:54:32.456Z,13.01
2022-08-26T21:56:12.216Z,13.01
2022-08-26T21:57:52.002Z,12.99
2022-08-26T21:59:31.741Z,13
2022-08-26T22:01:11.527Z,13
2022-08-26T22:02:51.289Z,12.98
2022-08-26T22:04:31.031Z,13.01
2022-08-26T22:07:50.573Z,13.01
2022-08-26T22:09:30.335Z,12.99
2022-08-26T22:11:10.107Z,12.98
2022-08-26T22:14:29.633Z,13.01
2022-08-26T22:16:09.385Z,12.98
2022-08-26T22:17:49.158Z,13
2022-08-26T22:19:28.922Z,13
2022-08-26T22:21:08.699Z,13
2022-08-26T22:22:48.444Z,12.98
2022-08-26T22:24:28.204Z,13
2022-08-26T22:26:07.975Z,12.97
2022-08-26T22:27:47.749Z,12.98
2022-08-26T22:29:27.511Z,13.01
2022-08-26T22:31:07.261Z,12.96
2022-08-26T22:32:47.045Z,12.98